Flight Track Log - Related Links

Times and Time Zones

All times are in EDT time to prevent confusion due to time zone crossing. See the COA9 flight status page for this flight to view local times or setup timezone preferences in your user account.

Time Position Orientation Groundspeed Altitude Reporting Facility
EDT Latitude Longitude Course Direction KTS MPH feet Rate Location/Type
Tue 11:26:40 AM 40.7500 -74.1333 298° West 221 254 2,100  Level New TRACON
Tue 11:27:02 AM 40.7694 -74.1494 285° West 30,000 1,574 Climbing New Center
Tue 11:27:41 AM 40.7833 -74.2167 276° West 269 310 3,700 -25,600 Descending New TRACON
Tue 11:28:02 AM 40.7872 -74.2628 287° West 272 313 4,400 2,557 Climbing New Center
Tue 11:28:42 AM 40.8000 -74.3167 301° West 273 314 6,300 2,557 Climbing New TRACON
Tue 11:29:03 AM 40.8097 -74.3381 340° North 283 326 7,000 2,222 Climbing New Center
Tue 11:30:03 AM 40.8797 -74.3717 347° North 272 313 9,300 1,900 Climbing New Center
Tue 11:31:03 AM 40.9561 -74.3950 349° North 272 313 10,800 1,300 Climbing New Center
Tue 11:32:03 AM 41.0469 -74.4192 346° North 289 333 11,900 1,339 Climbing New Center
Tue 11:33:04 AM 41.1397 -74.4489 335° Northwest 328 377 13,500 1,488 Climbing New Center
Tue 11:34:04 AM 41.2336 -74.5067 306° West 352 405 14,900 1,525 Climbing New Center
Tue 11:35:02 AM 41.2967 -74.6233 306° West 363 418 16,500 1,576 Climbing New Center
Tue 11:36:02 AM 41.3614 -74.7403 309° West 375 432 18,000 1,500 Climbing New Center
Tue 11:37:02 AM 41.4283 -74.8522 307° West 388 447 19,500 1,450 Climbing New Center
Tue 11:38:02 AM 41.4969 -74.9756 308° West 398 458 20,900 1,388 Climbing New Center
Tue 11:39:03 AM 41.5656 -75.0933 308° West 403 464 22,300 1,400 Climbing New Center
Tue 11:40:02 AM 41.6381 -75.2175 308° West 408 470 23,700 1,261 Climbing New Center
Tue 11:41:02 AM 41.6986 -75.3214 308° West 408 470 24,800 1,050 Climbing New Center
Tue 11:42:02 AM 41.7669 -75.4403 306° West 408 470 25,800 1,000 Climbing New Center
Tue 11:43:02 AM 41.8369 -75.5675 309° West 413 475 26,800 934 Climbing New Center
Tue 11:44:04 AM 41.9089 -75.6869 306° West 418 481 27,700 787 Climbing New Center
Tue 11:45:04 AM 41.9806 -75.8178 78° East 424 488 28,400 885 Climbing New Center
Tue 11:45:05 AM 41.9833 -75.8000 301° West 450 518 28,600 900 Climbing Toronto Center
Tue 11:46:04 AM 42.0481 -75.9431 75° East 429 494 29,300 800 Climbing New Center
Tue 11:46:05 AM 42.0500 -75.9333 301° West 440 506 29,400 632 Climbing Toronto Center
Tue 11:46:42 AM 42.0950 -76.0325 311° West 432 497 29,700 600 Climbing Cleveland Center
Tue 11:47:05 AM 42.1167 -76.0667 302° West 430 495 30,000 300 Climbing Toronto Center
Tue 11:47:42 AM 42.1628 -76.1650 308° West 437 503 30,000  Level Cleveland Center
Tue 11:48:05 AM 42.1833 -76.2000 289° West 430 495 30,000  Level Toronto Center
Tue 11:48:42 AM 42.2122 -76.3158 310° West 437 503 30,000  Level Cleveland Center
Tue 11:49:05 AM 42.2333 -76.3500 290° West 440 506 30,000  Level Toronto Center
Tue 11:49:42 AM 42.2683 -76.4833 301° West 446 513 30,000  Level Cleveland Center
Tue 11:50:05 AM 42.2833 -76.5167 291° West 450 518 30,000  Level Toronto Center
Tue 11:50:42 AM 42.3175 -76.6347 266° West 451 519 30,000  Level Cleveland Center
Tue 11:51:05 AM 42.3167 -76.6500 295° West 440 506 30,000  Level Toronto Center
Tue 11:51:42 AM 42.3644 -76.7892 313° West 446 513 30,000  Level Cleveland Center
Tue 11:52:05 AM 42.3833 -76.8167 288° West 440 506 30,000  Level Toronto Center
Tue 11:52:42 AM 42.4131 -76.9408 281° West 444 511 30,000  Level Cleveland Center
Tue 11:53:05 AM 42.4167 -76.9667 294° West 440 506 30,000  Level Toronto Center
Tue 11:53:54 AM 42.4597 -77.0958 284° West 444 511 30,000  Level Cleveland Center
Tue 11:54:05 AM 42.4667 -77.1333 296° West 440 506 30,000  Level Toronto Center
Tue 11:54:54 AM 42.5078 -77.2481 289° West 449 517 30,000  Level Cleveland Center
Tue 11:55:05 AM 42.5167 -77.2833 310° West 440 506 30,000  Level Toronto Center
Tue 11:55:54 AM 42.5936 -77.4072 153° Southeast 435 501 30,000  Level Cleveland Center
Tue 11:56:05 AM 42.5833 -77.4000 312° West 440 506 30,000  Level Toronto Center
Tue 11:56:54 AM 42.6633 -77.5194 North 435 501 30,000  Level Cleveland Center
Tue 11:57:05 AM 42.6833 -77.5167 306° West 440 506 30,000  Level Toronto Center
Tue 11:57:54 AM 42.7567 -77.6564 25° Northeast 445 512 30,000  Level Cleveland Center
Tue 11:58:05 AM 42.7667 -77.6500 310° West 440 506 30,000  Level Toronto Center
Tue 11:59:05 AM 42.8500 -77.7833 178° South 440 506 30,000  Level Toronto Center
Tue 11:59:06 AM 42.8369 -77.7828 313° West 445 512 30,000  Level Cleveland Center
Tue 12:00:05 PM 42.9167 -77.9000 315° West 440 506 30,000  Level Toronto Center
Tue 12:00:06 PM 42.9297 -77.9178 314° West 445 512 30,000  Level Cleveland Center
Tue 12:01:05 PM 43.0000 -78.0167 305° West 450 518 30,000  Level Toronto Center
Tue 12:01:06 PM 43.0203 -78.0558 312° West 450 518 30,000  Level Cleveland Center
Tue 12:02:05 PM 43.0833 -78.1500 316° Northwest 450 518 30,000  Level Toronto Center
Tue 12:02:06 PM 43.1064 -78.1803 309° West 450 518 30,000  Level Cleveland Center
Tue 12:03:05 PM 43.1667 -78.2833 323° Northwest 450 518 30,000  Level Toronto Center
Tue 12:03:06 PM 43.1881 -78.3053 312° West 450 518 30,000  Level Cleveland Center
Tue 12:04:05 PM 43.2500 -78.4000 315° West 450 518 30,000  Level Toronto Center
Tue 12:04:06 PM 43.2739 -78.4333 316° Northwest 455 524 30,000  Level Cleveland Center
Tue 12:05:05 PM 43.3500 -78.5333 286° West 450 518 30,000  Level Toronto Center
Tue 12:05:06 PM 43.3553 -78.5589 315° West 450 518 30,000  Level Cleveland Center
Tue 12:06:05 PM 43.4333 -78.6667 299° West 450 518 30,000  Level Toronto Center
Tue 12:06:06 PM 43.4408 -78.6850 317° Northwest 450 518 30,000  Level Cleveland Center
Tue 12:07:05 PM 43.5167 -78.7833 311° West 450 518 30,000  Level Toronto Center
Tue 12:08:05 PM 43.6000 -78.9167 311° West 450 518 30,000  Level Toronto Center
Tue 12:09:05 PM 43.6833 -79.0500 315° West 460 529 30,000  Level Toronto Center
Tue 12:10:05 PM 43.7667 -79.1667 308° West 450 518 30,000  Level Toronto Center
Tue 12:11:05 PM 43.8500 -79.3167 311° West 450 518 30,000  Level Toronto Center
Tue 12:12:05 PM 43.9333 -79.4500 315° West 460 529 30,000  Level Toronto Center
Tue 12:13:05 PM 44.0167 -79.5667 311° West 460 529 30,000  Level Toronto Center
Tue 12:14:05 PM 44.1000 -79.7000 308° West 460 529 30,000  Level Toronto Center
Tue 12:15:05 PM 44.1833 -79.8500 311° West 450 518 30,000  Level Toronto Center
Tue 12:16:05 PM 44.2667 -79.9833 315° West 460 529 30,000  Level Toronto Center
Tue 12:17:05 PM 44.3500 -80.1000 311° West 460 529 30,000  Level Toronto Center
Tue 12:18:05 PM 44.4333 -80.2333 308° West 460 529 30,000  Level Toronto Center
Tue 12:19:05 PM 44.5167 -80.3833 315° West 460 529 30,000  Level Toronto Center
Tue 12:20:05 PM 44.6000 -80.5000 311° West 460 529 30,000  Level Toronto Center
Tue 12:21:05 PM 44.6833 -80.6333 308° West 460 529 30,000  Level Toronto Center
Tue 12:22:05 PM 44.7667 -80.7833 302° West 460 529 30,000  Level Toronto Center
Tue 12:23:05 PM 44.8333 -80.9333 311° West 460 529 30,000  Level Toronto Center
Tue 12:24:05 PM 44.9167 -81.0667 315° West 460 529 30,000  Level Toronto Center
Tue 12:25:05 PM 45.0000 -81.1833 313° West 460 529 30,000  Level Toronto Center
Tue 12:26:05 PM 45.1000 -81.3333 308° West 460 529 30,000  Level Toronto Center
Tue 12:27:05 PM 45.1833 -81.4833 315° West 460 529 30,000  Level Toronto Center
Tue 12:28:05 PM 45.2667 -81.6000 305° West 470 541 30,000  Level Toronto Center
Tue 12:29:05 PM 45.3500 -81.7667 316° Northwest 470 541 30,000  Level Toronto Center
Tue 12:30:05 PM 45.4333 -81.8833 302° West 470 541 30,000  Level Toronto Center
Tue 12:31:05 PM 45.5000 -82.0333 308° West 470 541 30,000  Level Toronto Center
Tue 12:32:05 PM 45.5833 -82.1833 314° West 470 541 30,000  Level Toronto Center
Tue 12:33:05 PM 45.6833 -82.3333 309° West 470 541 30,000  Level Toronto Center
Tue 12:34:05 PM 45.7667 -82.4833 312° West 470 541 30,000  Level Toronto Center
Tue 12:35:05 PM 45.8500 -82.6167 303° West 470 541 30,000  Level Toronto Center
Tue 12:36:05 PM 45.9167 -82.7667 312° West 470 541 30,000  Level Toronto Center
Tue 12:37:05 PM 46.0000 -82.9000 311° West 470 541 30,000  Level Toronto Center
Tue 12:38:05 PM 46.1000 -83.0667 312° West 470 541 30,000  Level Toronto Center
Tue 12:39:05 PM 46.1833 -83.2000 300° West 470 541 30,000  Level Toronto Center
Tue 12:40:05 PM 46.2500 -83.3667 312° West 470 541 30,000  Level Toronto Center
Tue 12:41:05 PM 46.3333 -83.5000 311° West 480 552 30,000  Level Toronto Center
Tue 12:42:05 PM 46.4333 -83.6667 306° West 480 552 30,000  Level Toronto Center
Tue 12:43:05 PM 46.5000 -83.8000 306° West 480 552 30,000  Level Toronto Center
Tue 12:44:05 PM 46.5833 -83.9667 312° West 480 552 30,000  Level Toronto Center
Tue 12:45:05 PM 46.6667 -84.1000 318° Northwest 480 552 30,000  Level Toronto Center
Tue 12:45:46 PM 46.7167 -84.1667 293° West 550 633 30,000 100 Level Winnipeg Center
Tue 12:46:05 PM 46.7500 -84.2833 335° Northwest 480 552 30,100 800 Climbing Toronto Center
Tue 12:46:46 PM 46.8000 -84.3167 296° West 490 564 30,800 1,100 Climbing Winnipeg Center
Tue 12:47:05 PM 46.8333 -84.4167 306° West 480 552 31,200 1,000 Climbing Toronto Center
Tue 12:47:46 PM 46.8667 -84.4833 311° West 480 552 31,800 800 Climbing Winnipeg Center
Tue 12:48:05 PM 46.9167 -84.5667 306° West 470 541 32,000 200 Climbing Toronto Center
Tue 12:48:46 PM 46.9500 -84.6333 300° West 470 541 32,000  Level Winnipeg Center
Tue 12:49:05 PM 46.9833 -84.7167 318° Northwest 470 541 32,000  Level Toronto Center
Tue 12:49:46 PM 47.0333 -84.7833 311° West 470 541 32,000  Level Winnipeg Center
Tue 12:50:05 PM 47.0833 -84.8667 318° Northwest 470 541 32,000  Level Toronto Center
Tue 12:50:46 PM 47.1333 -84.9333 296° West 480 552 32,000  Level Winnipeg Center
Tue 12:51:05 PM 47.1667 -85.0333 326° Northwest 470 541 32,000  Level Toronto Center
Tue 12:51:46 PM 47.2167 -85.0833 284° West 480 552 32,000  Level Winnipeg Center
Tue 12:52:05 PM 47.2333 -85.1833 318° Northwest 480 552 32,000  Level Toronto Center
Tue 12:52:46 PM 47.2833 -85.2500 301° West 480 552 32,000  Level Winnipeg Center
Tue 12:53:05 PM 47.3167 -85.3333 318° Northwest 480 552 32,000  Level Toronto Center
Tue 12:53:46 PM 47.3667 -85.4000 284° West 480 552 32,000  Level Winnipeg Center
Tue 12:54:05 PM 47.3833 -85.5000 333° Northwest 480 552 32,000  Level Toronto Center
Tue 12:54:46 PM 47.4500 -85.5500 296° West 480 552 32,000  Level Winnipeg Center
Tue 12:55:05 PM 47.4833 -85.6500 326° Northwest 480 552 32,000  Level Toronto Center
Tue 12:55:46 PM 47.5333 -85.7000 284° West 480 552 32,000  Level Winnipeg Center
Tue 12:56:05 PM 47.5500 -85.8000 318° Northwest 480 552 32,000  Level Toronto Center
Tue 12:56:46 PM 47.6000 -85.8667 296° West 470 541 32,000  Level Winnipeg Center
Tue 12:57:05 PM 47.6333 -85.9667 326° Northwest 470 541 32,000  Level Toronto Center
Tue 12:57:46 PM 47.6833 -86.0167 284° West 470 541 32,000  Level Winnipeg Center
Tue 12:58:05 PM 47.7000 -86.1167 326° Northwest 470 541 32,000  Level Toronto Center
Tue 12:58:46 PM 47.7667 -86.1833 296° West 470 541 32,000  Level Winnipeg Center
Tue 12:59:05 PM 47.8000 -86.2833 326° Northwest 470 541 32,000  Level Toronto Center
Tue 12:59:46 PM 47.8333 -86.3167 293° West 470 541 32,000  Level Winnipeg Center
Tue 01:00:05 PM 47.8667 -86.4333 318° Northwest 470 541 32,000  Level Toronto Center
Tue 01:00:46 PM 47.9167 -86.5000 296° West 470 541 32,000  Level Winnipeg Center
Tue 01:01:05 PM 47.9500 -86.6000 326° Northwest 470 541 32,000  Level Toronto Center
Tue 01:01:46 PM 47.9833 -86.6333 297° West 470 541 32,000  Level Winnipeg Center
Tue 01:02:05 PM 48.0167 -86.7333 318° Northwest 470 541 32,000  Level Toronto Center
Tue 01:02:46 PM 48.0667 -86.8000 297° West 470 541 32,000  Level Winnipeg Center
Tue 01:03:05 PM 48.1000 -86.9000 315° West 470 541 32,000  Level Toronto Center
Tue 01:03:46 PM 48.1333 -86.9500 307° West 470 541 32,000  Level Winnipeg Center
Tue 01:04:05 PM 48.1833 -87.0500 307° West 470 541 32,000  Level Toronto Center
Tue 01:04:46 PM 48.2167 -87.1167 297° West 470 541 32,000  Level Winnipeg Center
Tue 01:05:05 PM 48.2500 -87.2167 318° Northwest 470 541 32,000  Level Toronto Center
Tue 01:05:46 PM 48.3000 -87.2833 297° West 470 541 32,000  Level Winnipeg Center
Tue 01:06:05 PM 48.3333 -87.3833 315° West 470 541 32,000  Level Toronto Center
Tue 01:06:46 PM 48.3667 -87.4333 293° West 470 541 32,000  Level Winnipeg Center
Tue 01:07:05 PM 48.4000 -87.5500 326° Northwest 470 541 32,000  Level Toronto Center
Tue 01:07:46 PM 48.4500 -87.6000 284° West 470 541 32,000  Level Winnipeg Center
Tue 01:08:05 PM 48.4667 -87.7000 326° Northwest 470 541 32,000  Level Toronto Center
Tue 01:08:46 PM 48.5333 -87.7667 287° West 470 541 32,000  Level Winnipeg Center
Tue 01:09:05 PM 48.5500 -87.8500 327° Northwest 460 529 32,000  Level Toronto Center
Tue 01:09:46 PM 48.6000 -87.9000 291° West 470 541 32,000  Level Winnipeg Center
Tue 01:10:05 PM 48.6333 -88.0333 315° West 460 529 32,000  Level Toronto Center
Tue 01:10:46 PM 48.6667 -88.0833 301° West 470 541 32,000  Level Winnipeg Center
Tue 01:11:05 PM 48.7000 -88.1667 319° Northwest 470 541 32,000  Level Toronto Center
Tue 01:11:46 PM 48.7500 -88.2333 297° West 470 541 32,000  Level Winnipeg Center
Tue 01:12:05 PM 48.7833 -88.3333 319° Northwest 470 541 32,000  Level Toronto Center
Tue 01:12:46 PM 48.8333 -88.4000 284° West 470 541 32,000  Level Winnipeg Center
Tue 01:13:05 PM 48.8500 -88.5000 319° Northwest 480 552 32,000  Level Toronto Center
Tue 01:13:46 PM 48.9000 -88.5667 284° West 460 529 32,000  Level Winnipeg Center
Tue 01:14:05 PM 48.9167 -88.6667 336° Northwest 470 541 32,000  Level Toronto Center
Tue 01:14:46 PM 48.9667 -88.7000 302° West 460 529 32,000  Level Winnipeg Center
Tue 01:15:46 PM 49.0500 -88.9000 307° West 460 529 32,000  Level Winnipeg Center
Tue 01:15:53 PM 49.0333 -88.9333 322° Northwest 370 426  Descending Toronto Center
Tue 01:16:46 PM 49.1167 -89.0333 301° West 460 529 32,000 16,991 Climbing Winnipeg Center
Tue 01:17:46 PM 49.1833 -89.2000 308° West 460 529 32,000  Level Winnipeg Center
Tue 01:18:46 PM 49.2667 -89.3667 302° West 460 529 32,000  Level Winnipeg Center
Tue 01:19:46 PM 49.3333 -89.5333 311° West 460 529 32,000  Level Winnipeg Center
Tue 01:20:46 PM 49.4167 -89.6833 302° West 460 529 32,000  Level Winnipeg Center
Tue 01:21:46 PM 49.4833 -89.8500 302° West 460 529 32,000  Level Winnipeg Center
Tue 01:22:46 PM 49.5500 -90.0167 305° West 460 529 32,000  Level Winnipeg Center
Tue 01:23:46 PM 49.6333 -90.2000 302° West 460 529 32,000  Level Winnipeg Center
Tue 01:24:46 PM 49.7000 -90.3667 305° West 470 541 32,000  Level Winnipeg Center
Tue 01:25:46 PM 49.7667 -90.5167 302° West 450 518 32,000  Level Winnipeg Center
Tue 01:26:46 PM 49.8333 -90.6833 308° West 460 529 32,000  Level Winnipeg Center
Tue 01:27:46 PM 49.9167 -90.8500 293° West 460 529 32,000  Level Winnipeg Center
Tue 01:28:46 PM 49.9667 -91.0333 308° West 460 529 32,000  Level Winnipeg Center
Tue 01:29:46 PM 50.0500 -91.2000 305° West 460 529 32,000  Level Winnipeg Center
Tue 01:30:46 PM 50.1167 -91.3500 300° West 460 529 32,000  Level Winnipeg Center
Tue 01:31:46 PM 50.1833 -91.5333 308° West 460 529 32,000  Level Winnipeg Center
Tue 01:32:46 PM 50.2667 -91.7000 298° West 460 529 32,000  Level Winnipeg Center
Tue 01:33:46 PM 50.3167 -91.8500 303° West 470 541 32,000  Level Winnipeg Center
Tue 01:34:46 PM 50.4000 -92.0500 305° West 470 541 32,000  Level Winnipeg Center
Tue 01:35:46 PM 50.4667 -92.2000 291° West 470 541 32,000  Level Winnipeg Center
Tue 01:36:36 PM 50.5000 -92.3333 316° Northwest 470 541 32,000  Level Edmonton Center
Tue 01:36:46 PM 50.5333 -92.3833 301° West 470 541 32,000  Level Winnipeg Center
Tue 01:37:37 PM 50.5833 -92.5167 298° West 470 541 32,000  Level Edmonton Center
Tue 01:37:46 PM 50.6000 -92.5667 304° West 470 541 32,000  Level Winnipeg Center
Tue 01:38:37 PM 50.6500 -92.6833 298° West 480 552 32,000  Level Edmonton Center
Tue 01:38:46 PM 50.6667 -92.7333 304° West 480 552 32,000  Level Winnipeg Center
Tue 01:39:36 PM 50.7167 -92.8500 308° West 470 541 32,000  Level Edmonton Center
Tue 01:39:46 PM 50.7500 -92.9167 292° West 480 552 32,000  Level Winnipeg Center
Tue 01:40:37 PM 50.7833 -93.0500 317° Northwest 460 529 32,000  Level Edmonton Center
Tue 01:40:46 PM 50.8167 -93.1000 304° West 480 552 32,000  Level Winnipeg Center
Tue 01:41:36 PM 50.8667 -93.2167 270° West 480 552 32,000  Level Edmonton Center
Tue 01:41:46 PM 50.8667 -93.2833 304° West 480 552 32,000  Level Winnipeg Center
Tue 01:42:36 PM 50.9167 -93.4000 317° Northwest 470 541 32,000  Level Edmonton Center
Tue 01:42:46 PM 50.9500 -93.4500 301° West 480 552 32,000  Level Winnipeg Center
Tue 01:43:36 PM 51.0000 -93.5833 298° West 470 541 32,000  Level Edmonton Center
Tue 01:43:46 PM 51.0167 -93.6333 301° West 480 552 32,000  Level Winnipeg Center
Tue 01:44:36 PM 51.0667 -93.7667 298° West 470 541 32,000  Level Edmonton Center
Tue 01:44:46 PM 51.0833 -93.8167 304° West 480 552 32,000  Level Winnipeg Center
Tue 01:45:36 PM 51.1333 -93.9333 320° Northwest 470 541 32,000  Level Edmonton Center
Tue 01:45:46 PM 51.1833 -94.0000 305° West 480 552 32,000  Level Winnipeg Center
Tue 01:46:36 PM 51.2167 -94.1000 317° Northwest 480 552  Descending Edmonton Center
Tue 01:46:46 PM 51.2500 -94.1500 304° West 480 552 32,000 32,000 Climbing Winnipeg Center
Tue 01:47:36 PM 51.3000 -94.2667 292° West 480 552 32,000  Level Edmonton Center
Tue 01:47:46 PM 51.3167 -94.3333 311° West 480 552 32,000  Level Winnipeg Center
Tue 01:48:46 PM 51.4167 -94.5167 300° West 480 552 32,000  Level Winnipeg Center
Tue 01:49:46 PM 51.4833 -94.7000 303° West 480 552 32,000  Level Winnipeg Center
Tue 01:50:46 PM 51.5500 -94.8667 306° West 470 541 32,000  Level Winnipeg Center
Tue 01:51:46 PM 51.6333 -95.0500 303° West 480 552 32,000  Level Winnipeg Center
Tue 01:52:46 PM 51.7000 -95.2167 312° West 470 541 32,000  Level Winnipeg Center
Tue 01:53:46 PM 51.7833 -95.3667 306° West 470 541 32,000  Level Winnipeg Center
Tue 01:54:46 PM 51.8667 -95.5500 298° West 470 541 32,000  Level Winnipeg Center
Tue 01:55:46 PM 51.9333 -95.7500 306° West 470 541 32,000  Level Winnipeg Center
Tue 01:56:46 PM 52.0000 -95.9000 303° West 470 541 32,000  Level Winnipeg Center
Tue 01:57:46 PM 52.0667 -96.0667 302° West 470 541 32,000  Level Winnipeg Center
Tue 01:58:46 PM 52.1500 -96.2833 303° West 460 529 32,000  Level Winnipeg Center
Tue 01:59:46 PM 52.2167 -96.4500 303° West 460 529 32,000  Level Winnipeg Center
Tue 02:00:46 PM 52.2833 -96.6167 306° West 460 529 32,000  Level Winnipeg Center
Tue 02:01:46 PM 52.3500 -96.7667 303° West 460 529 32,000  Level Winnipeg Center
Tue 02:02:46 PM 52.4167 -96.9333 292° West 460 529 32,000  Level Winnipeg Center
Tue 02:03:09 PM 52.4333 -97.0000 309° West 450 518 32,000  Level Edmonton Center
Tue 02:03:46 PM 52.5000 -97.1333 299° West 450 518 32,000  Level Winnipeg Center
Tue 02:04:09 PM 52.5167 -97.1833 302° West 450 518 32,000  Level Edmonton Center
Tue 02:04:46 PM 52.5667 -97.3167 329° Northwest 450 518 32,000  Level Winnipeg Center
Tue 02:05:09 PM 52.5833 -97.3333 299° West 450 518 32,000  Level Edmonton Center
Tue 02:05:46 PM 52.6333 -97.4833 310° West 460 529 32,000  Level Winnipeg Center
Tue 02:06:09 PM 52.6500 -97.5167 302° West 460 529 32,000  Level Edmonton Center
Tue 02:06:46 PM 52.7000 -97.6500 299° West 460 529 32,000  Level Winnipeg Center
Tue 02:07:09 PM 52.7167 -97.7000 306° West 450 518 32,000  Level Edmonton Center
Tue 02:07:46 PM 52.7833 -97.8500 360° North 460 529 32,000  Level Winnipeg Center
Tue 02:08:09 PM 52.7833 -97.8500 304° West 460 529 32,000  Level Edmonton Center
Tue 02:08:46 PM 52.8500 -98.0167 329° Northwest 480 552 32,000  Level Winnipeg Center
Tue 02:09:09 PM 52.8667 -98.0333 299° West 450 518 32,000  Level Edmonton Center
Tue 02:09:46 PM 52.9167 -98.1833 310° West 460 529 32,000  Level Winnipeg Center
Tue 02:10:09 PM 52.9333 -98.2167 297° West 460 529 32,000  Level Edmonton Center
Tue 02:10:46 PM 52.9833 -98.3833 270° West 440 506 32,000  Level Winnipeg Center
Tue 02:11:09 PM 52.9833 -98.4167 304° West 450 518 32,000  Level Edmonton Center
Tue 02:11:46 PM 53.0500 -98.5833 329° Northwest 470 541 32,000  Level Winnipeg Center
Tue 02:12:09 PM 53.0667 -98.6000 299° West 460 529 32,000  Level Edmonton Center
Tue 02:12:46 PM 53.1167 -98.7500 310° West 450 518 32,000  Level Winnipeg Center
Tue 02:13:09 PM 53.1333 -98.7833 302° West 460 529 32,000  Level Edmonton Center
Tue 02:13:46 PM 53.1833 -98.9167 299° West 450 518 32,000  Level Winnipeg Center
Tue 02:14:09 PM 53.2000 -98.9667 299° West 470 541 32,000  Level Edmonton Center
Tue 02:14:46 PM 53.2500 -99.1167 299° West 460 529 32,000  Level Winnipeg Center
Tue 02:15:09 PM 53.2667 -99.1667 306° West 470 541 32,000  Level Edmonton Center
Tue 02:15:46 PM 53.3167 -99.2833 310° West 460 529 32,000  Level Winnipeg Center
Tue 02:16:09 PM 53.3333 -99.3167 297° West 460 529 32,000  Level Edmonton Center
Tue 02:16:46 PM 53.3833 -99.4833 310° West 470 541 32,000  Level Winnipeg Center
Tue 02:17:09 PM 53.4000 -99.5167 299° West 460 529 32,000  Level Edmonton Center
Tue 02:17:46 PM 53.4500 -99.6667 310° West 460 529 32,000  Level Winnipeg Center
Tue 02:18:09 PM 53.4667 -99.7000 304° West 460 529 32,000  Level Edmonton Center
Tue 02:18:46 PM 53.5333 -99.8667 270° West 470 541 32,000  Level Winnipeg Center
Tue 02:19:09 PM 53.5333 -99.9000 302° West 460 529 32,000  Level Edmonton Center
Tue 02:19:46 PM 53.5833 -100.0330 299° West 470 541 32,000  Level Winnipeg Center
Tue 02:20:09 PM 53.6000 -100.0830 304° West 460 529 32,000  Level Edmonton Center
Tue 02:20:46 PM 53.6667 -100.2500 270° West 470 541 32,000  Level Winnipeg Center
Tue 02:21:09 PM 53.6667 -100.2830 310° West 470 541 32,000  Level Edmonton Center
Tue 02:21:46 PM 53.7333 -100.4170 270° West 460 529 32,000  Level Winnipeg Center
Tue 02:22:09 PM 53.7333 -100.4670 310° West 460 529 32,000  Level Edmonton Center
Tue 02:22:46 PM 53.8000 -100.6000 270° West 470 541 32,000  Level Winnipeg Center
Tue 02:23:09 PM 53.8000 -100.6330 297° West 460 529 32,000  Level Edmonton Center
Tue 02:23:46 PM 53.8500 -100.8000 300° West 470 541 32,000  Level Winnipeg Center
Tue 02:24:09 PM 53.8667 -100.8500 306° West 470 541 32,000  Level Edmonton Center
Tue 02:24:46 PM 53.9167 -100.9670 299° West 470 541 32,000  Level Winnipeg Center
Tue 02:25:09 PM 53.9333 -101.0170 297° West 460 529 32,000  Level Edmonton Center
Tue 02:25:46 PM 53.9833 -101.1830 360° North 470 541 32,000  Level Winnipeg Center
Tue 02:26:09 PM 54.0167 -101.1830 302° West 460 529 32,000  Level Edmonton Center
Tue 02:26:46 PM 54.0833 -101.3670 331° Northwest 470 541 32,000  Level Winnipeg Center
Tue 02:27:09 PM 54.1000 -101.3830 310° West 460 529 32,000  Level Edmonton Center
Tue 02:27:46 PM 54.1667 -101.5170 311° West 470 541 32,000  Level Winnipeg Center
Tue 02:28:09 PM 54.1833 -101.5500 300° West 470 541 32,000  Level Edmonton Center
Tue 02:28:46 PM 54.2333 -101.7000 300° West 470 541 32,000  Level Winnipeg Center
Tue 02:29:09 PM 54.2500 -101.7500 314° West 460 529 32,000  Level Edmonton Center
Tue 02:29:46 PM 54.3167 -101.8670 300° West 470 541 32,000  Level Winnipeg Center
Tue 02:30:09 PM 54.3333 -101.9170 317° Northwest 470 541 32,000  Level Edmonton Center
Tue 02:30:46 PM 54.4167 -102.0500 270° West 470 541 32,000  Level Winnipeg Center
Tue 02:31:09 PM 54.4167 -102.0830 300° West 460 529 32,000  Level Edmonton Center
Tue 02:31:46 PM 54.4667 -102.2330 300° West 470 541 32,000  Level Winnipeg Center
Tue 02:32:09 PM 54.4833 -102.2830 311° West 460 529 32,000  Level Edmonton Center
Tue 02:32:46 PM 54.5500 -102.4170 270° West 470 541 32,000  Level Winnipeg Center
Tue 02:33:09 PM 54.5500 -102.4830 315° West 460 529 32,000  Level Edmonton Center
Tue 02:33:46 PM 54.6167 -102.6000 319° Northwest 470 541 32,000  Level Winnipeg Center
Tue 02:34:09 PM 54.6500 -102.6500 303° West 460 529 32,000  Level Edmonton Center
Tue 02:34:46 PM 54.7000 -102.7830 310° West 470 541 32,000  Level Winnipeg Center
Tue 02:35:09 PM 54.7167 -102.8170 305° West 460 529 32,000  Level Edmonton Center
Tue 02:35:46 PM 54.7833 -102.9830 330° Northwest 470 541 32,000  Level Winnipeg Center
Tue 02:36:09 PM 54.8000 -103.0000 305° West 470 541 32,000  Level Edmonton Center
Tue 02:36:46 PM 54.8667 -103.1670 360° North 470 541 32,000  Level Winnipeg Center
Tue 02:37:09 PM 54.8667 -103.1670 308° West 460 529 32,000  Level Edmonton Center
Tue 02:37:46 PM 54.9333 -103.3170 319° Northwest 470 541 32,000  Level Winnipeg Center
Tue 02:38:09 PM 54.9667 -103.3670 303° West 460 529 32,000  Level Edmonton Center
Tue 02:38:46 PM 55.0167 -103.5000 300° West 470 541 32,000  Level Winnipeg Center
Tue 02:39:09 PM 55.0333 -103.5500 307° West 460 529 32,000  Level Edmonton Center
Tue 02:39:46 PM 55.0833 -103.6670 319° Northwest 470 541 32,000  Level Winnipeg Center
Tue 02:40:09 PM 55.1167 -103.7170 305° West 460 529 32,000  Level Edmonton Center
Tue 02:40:46 PM 55.1833 -103.8830 270° West 470 541 32,000  Level Winnipeg Center
Tue 02:41:10 PM 55.1833 -103.9000 308° West 460 529 32,000  Level Edmonton Center
Tue 02:41:46 PM 55.2500 -104.0500 330° Northwest 470 541 32,000  Level Winnipeg Center
Tue 02:42:09 PM 55.2667 -104.0670 298° West 460 529 32,000  Level Edmonton Center
Tue 02:42:46 PM 55.3167 -104.2330 330° Northwest 470 541 32,000  Level Winnipeg Center
Tue 02:43:09 PM 55.3667 -104.2830 300° West 460 529 32,000  Level Edmonton Center
Tue 02:43:46 PM 55.4167 -104.4330 330° Northwest 470 541 32,000  Level Winnipeg Center
Tue 02:44:09 PM 55.4333 -104.4500 301° West 460 529 32,000  Level Edmonton Center
Tue 02:44:46 PM 55.4833 -104.6000 312° West 470 541 32,000  Level Winnipeg Center
Tue 02:45:09 PM 55.5000 -104.6330 308° West 460 529 32,000  Level Edmonton Center
Tue 02:45:46 PM 55.5667 -104.7830 311° West 470 541 32,000  Level Winnipeg Center
Tue 02:46:09 PM 55.5833 -104.8170 306° West 460 529 32,000 100 Level Edmonton Center
Tue 02:46:46 PM 55.6500 -104.9830 311° West 470 541 32,100 600 Climbing Winnipeg Center
Tue 02:47:09 PM 55.6667 -105.0170 298° West 460 529 32,600 1,200 Climbing Edmonton Center
Tue 02:47:46 PM 55.7167 -105.1830 330° Northwest 470 541 33,300 1,300 Climbing Winnipeg Center
Tue 02:48:09 PM 55.7333 -105.2000 312° West 460 529 33,900 700 Climbing Edmonton Center
Tue 02:48:46 PM 55.8000 -105.3330 270° West 460 529 34,000 100 Climbing Winnipeg Center
Tue 02:49:09 PM 55.8000 -105.3830 308° West 450 518 34,000  Level Edmonton Center
Tue 02:49:46 PM 55.8667 -105.5330 311° West 460 529 34,000  Level Winnipeg Center
Tue 02:50:09 PM 55.8833 -105.5670 298° West 450 518 34,000  Level Edmonton Center
Tue 02:50:46 PM 55.9333 -105.7330 330° Northwest 460 529 34,000  Level Winnipeg Center
Tue 02:51:09 PM 55.9500 -105.7500 301° West 450 518 34,000  Level Edmonton Center
Tue 02:51:46 PM 56.0000 -105.9000 331° Northwest 460 529 34,000  Level Winnipeg Center
Tue 02:52:09 PM 56.0333 -105.9330 298° West 450 518 34,000  Level Edmonton Center
Tue 02:52:46 PM 56.0833 -106.1000 330° Northwest 460 529 34,000  Level Winnipeg Center
Tue 02:53:09 PM 56.1000 -106.1170 301° West 450 518 34,000  Level Edmonton Center
Tue 02:53:46 PM 56.1500 -106.2670 294° West 460 529 34,000  Level Winnipeg Center
Tue 02:54:09 PM 56.1667 -106.3330 301° West 450 518 34,000  Level Edmonton Center
Tue 02:54:46 PM 56.2167 -106.4830 311° West 450 518 34,000  Level Winnipeg Center
Tue 02:55:09 PM 56.2333 -106.5170 299° West 450 518 34,000  Level Edmonton Center
Tue 02:55:46 PM 56.2833 -106.6830 331° Northwest 460 529 34,000  Level Winnipeg Center
Tue 02:56:09 PM 56.3000 -106.7000 298° West 450 518 34,000  Level Edmonton Center
Tue 02:56:46 PM 56.3500 -106.8670 301° West 460 529 34,000  Level Winnipeg Center
Tue 02:57:09 PM 56.3667 -106.9170 294° West 450 518 34,000  Level Edmonton Center
Tue 02:57:46 PM 56.4000 -107.0500 320° Northwest 460 529 34,000  Level Winnipeg Center
Tue 02:58:09 PM 56.4333 -107.1000 301° West 450 518 34,000  Level Edmonton Center
Tue 02:58:46 PM 56.4833 -107.2500 301° West 460 529 34,000  Level Winnipeg Center
Tue 02:59:09 PM 56.5000 -107.3000 288° West 450 518 34,000  Level Edmonton Center
Tue 02:59:46 PM 56.5333 -107.4830 312° West 460 529 34,000  Level Winnipeg Center
Tue 03:00:09 PM 56.5500 -107.5170 309° West 450 518 34,000  Level Edmonton Center
Tue 03:00:46 PM 56.6167 -107.6670 270° West 460 529 34,000  Level Winnipeg Center
Tue 03:01:09 PM 56.6167 -107.7000 306° West 450 518 34,000  Level Edmonton Center
Tue 03:01:46 PM 56.6833 -107.8670 270° West 460 529 34,000  Level Winnipeg Center
Tue 03:02:09 PM 56.6833 -107.9000 299° West 450 518 34,000  Level Edmonton Center
Tue 03:02:46 PM 56.7333 -108.0670 301° West 460 529 34,000  Level Winnipeg Center
Tue 03:03:09 PM 56.7500 -108.1170 301° West 450 518 34,000  Level Edmonton Center
Tue 03:03:46 PM 56.8000 -108.2670 313° West 460 529 34,000  Level Winnipeg Center
Tue 03:04:09 PM 56.8167 -108.3000 299° West 460 529 34,000  Level Edmonton Center
Tue 03:04:46 PM 56.8667 -108.4670 270° West 460 529 34,000  Level Winnipeg Center
Tue 03:05:09 PM 56.8667 -108.5330 309° West 450 518 34,000  Level Edmonton Center
Tue 03:05:46 PM 56.9333 -108.6830 270° West 460 529 34,000  Level Winnipeg Center
Tue 03:06:09 PM 56.9333 -108.7170 299° West 450 518 34,000  Level Edmonton Center
Tue 03:06:46 PM 56.9833 -108.8830 312° West 470 541 34,000  Level Winnipeg Center
Tue 03:07:09 PM 57.0167 -108.9500 295° West 450 518 34,000  Level Edmonton Center
Tue 03:07:46 PM 57.0500 -109.0830 270° West 460 529 34,000  Level Winnipeg Center
Tue 03:08:09 PM 57.0500 -109.1330 306° West 450 518 34,000  Level Edmonton Center
Tue 03:08:46 PM 57.1167 -109.3000 313° West 460 529 34,000  Level Winnipeg Center
Tue 03:09:09 PM 57.1333 -109.3330 298° West 450 518 34,000  Level Edmonton Center
Tue 03:10:09 PM 57.2000 -109.5670 295° West 450 518 34,000  Level Edmonton Center
Tue 03:11:09 PM 57.2500 -109.7670 304° West 450 518 34,000  Level Edmonton Center
Tue 03:12:09 PM 57.3167 -109.9500 295° West 450 518 34,000  Level Edmonton Center
Tue 03:13:09 PM 57.3667 -110.1500 298° West 450 518 34,000  Level Edmonton Center
Tue 03:14:09 PM 57.4333 -110.3830 285° West 450 518 34,000  Level Edmonton Center
Tue 03:15:09 PM 57.4667 -110.6170 293° West 450 518 34,000  Level Edmonton Center
Tue 03:16:09 PM 57.5167 -110.8330 287° West 450 518 34,000  Level Edmonton Center
Tue 03:17:09 PM 57.5500 -111.0330 298° West 450 518 34,000  Level Edmonton Center
Tue 03:18:09 PM 57.6167 -111.2670 285° West 440 506 34,000  Level Edmonton Center
Tue 03:19:09 PM 57.6500 -111.5000 285° West 450 518 34,000  Level Edmonton Center
Tue 03:20:09 PM 57.6833 -111.7330 295° West 450 518 34,000  Level Edmonton Center
Tue 03:21:09 PM 57.7333 -111.9330 285° West 450 518 34,000  Level Edmonton Center
Tue 03:22:09 PM 57.7667 -112.1670 278° West 450 518 34,000  Level Edmonton Center
Tue 03:23:09 PM 57.7833 -112.3830 278° West 440 506 34,000  Level Edmonton Center
Tue 03:24:09 PM 57.8000 -112.6170 277° West 440 506 34,000  Level Edmonton Center
Tue 03:25:09 PM 57.8167 -112.8670 270° West 440 506 34,000  Level Edmonton Center
Tue 03:26:09 PM 57.8167 -113.1000 278° West 430 495 34,000  Level Edmonton Center
Tue 03:27:09 PM 57.8333 -113.3330 270° West 430 495 34,000  Level Edmonton Center
Tue 03:28:09 PM 57.8333 -113.5500 279° West 430 495 34,000  Level Edmonton Center
Tue 03:29:09 PM 57.8500 -113.7500 292° West 430 495 34,000  Level Edmonton Center
Tue 03:30:09 PM 57.9000 -113.9830 300° West 430 495 34,000  Level Edmonton Center
Tue 03:31:09 PM 57.9667 -114.2000 288° West 440 506 34,000  Level Edmonton Center
Tue 03:32:09 PM 58.0000 -114.4000 292° West 440 506 34,000  Level Edmonton Center
Tue 03:33:09 PM 58.0500 -114.6330 294° West 440 506 34,000  Level Edmonton Center
Tue 03:34:09 PM 58.1000 -114.8500 295° West 440 506 34,000  Level Edmonton Center
Tue 03:35:09 PM 58.1500 -115.0500 285° West 440 506 34,000  Level Edmonton Center
Tue 03:36:09 PM 58.1833 -115.2830 294° West 450 518 34,000  Level Edmonton Center
Tue 03:37:09 PM 58.2333 -115.5000 291° West 450 518 34,000  Level Edmonton Center
Tue 03:38:09 PM 58.2833 -115.7500 296° West 460 529 34,000  Level Edmonton Center
Tue 03:39:09 PM 58.3333 -115.9500 289° West 460 529 34,000  Level Edmonton Center
Tue 03:40:09 PM 58.3833 -116.2330 294° West 470 541 34,000  Level Edmonton Center
Tue 03:41:09 PM 58.4333 -116.4500 285° West 470 541 34,000  Level Edmonton Center
Tue 03:42:09 PM 58.4667 -116.6830 294° West 460 529 34,000  Level Edmonton Center
Tue 03:43:09 PM 58.5167 -116.9000 291° West 470 541 34,000  Level Edmonton Center
Tue 03:44:09 PM 58.5667 -117.1500 291° West 470 541 34,000  Level Edmonton Center
Tue 03:45:09 PM 58.6167 -117.4000 284° West 470 541 34,000  Level Edmonton Center
Tue 03:46:09 PM 58.6500 -117.6500 291° West 470 541 34,000  Level Edmonton Center
Tue 03:47:09 PM 58.7000 -117.9000 294° West 470 541 34,000  Level Edmonton Center
Tue 03:48:09 PM 58.7500 -118.1170 285° West 440 506 34,000  Level Edmonton Center
Tue 03:49:09 PM 58.7833 -118.3670 294° West 480 552 34,000  Level Edmonton Center
Tue 03:50:09 PM 58.8333 -118.5830 290° West 460 529 34,000  Level Edmonton Center
Tue 05:14:50 PM 60.9333 -140.4000 270° West 490 564 34,000  Level Anchorage Center
Tue 05:15:51 PM 60.9333 -140.6830 277° West 500 575 34,000  Level Anchorage Center
Tue 05:16:51 PM 60.9500 -140.9670 257° West 500 575 34,000  Level Anchorage Center
Tue 05:17:51 PM 60.9167 -141.2670 256° West 500 575 34,000  Level Anchorage Center
Tue 05:18:52 PM 60.8833 -141.5330 249° West 490 564 34,000  Level Anchorage Center
Tue 05:19:52 PM 60.8333 -141.8000 256° West 500 575 34,000  Level Anchorage Center
Tue 05:20:52 PM 60.8000 -142.0670 249° West 490 564 34,000 50 Level Anchorage Center
Tue 05:21:53 PM 60.7500 -142.3330 270° West 500 575 34,100 545 Climbing Anchorage Center
Tue 05:22:53 PM 60.7500 -142.6170 277° West 490 564 35,100 942 Climbing Anchorage Center
Tue 05:23:54 PM 60.7667 -142.9000 270° West 490 564 36,000 446 Climbing Anchorage Center
Tue 05:24:54 PM 60.7667 -143.1830 270° West 490 564 36,000  Level Anchorage Center
Tue 05:25:54 PM 60.7667 -143.4670 270° West 500 575 36,000  Level Anchorage Center
Tue 05:26:55 PM 60.7667 -143.7500 270° West 490 564 36,000  Level Anchorage Center
Tue 05:27:55 PM 60.7667 -144.0330 270° West 490 564 36,000  Level Anchorage Center
Tue 05:28:55 PM 60.7667 -144.3170 270° West 490 564 36,000  Level Anchorage Center
Tue 05:29:55 PM 60.7667 -144.6000 270° West 490 564 36,000  Level Anchorage Center
Tue 05:30:56 PM 60.7667 -144.8670 270° West 490 564 36,000  Level Anchorage Center
Tue 05:31:57 PM 60.7667 -145.1670 270° West 500 575 36,000  Level Anchorage Center
Tue 05:32:57 PM 60.7667 -145.4330 270° West 490 564 36,000  Level Anchorage Center
Tue 05:33:57 PM 60.7667 -145.7170 270° West 490 564 36,000  Level Anchorage Center
Tue 05:34:58 PM 60.7667 -146.0000 270° West 490 564 36,000  Level Anchorage Center
Tue 05:35:58 PM 60.7667 -146.3330 263° West 490 564 36,000  Level Anchorage Center
Tue 05:36:58 PM 60.7500 -146.6000 270° West 480 552 36,000  Level Anchorage Center
Tue 05:37:59 PM 60.7500 -146.8830 270° West 490 564 36,000  Level Anchorage Center
Tue 05:38:59 PM 60.7500 -147.1670 263° West 480 552 36,000  Level Anchorage Center
Tue 05:39:59 PM 60.7333 -147.4500 270° West 500 575 36,000  Level Anchorage Center
Tue 05:41:00 PM 60.7333 -147.7170 270° West 480 552 36,000  Level Anchorage Center
Tue 05:42:00 PM 60.7333 -147.9500 263° West 470 541 36,000  Level Anchorage Center
Tue 05:43:01 PM 60.7167 -148.2330 270° West 480 552 36,000  Level Anchorage Center
Tue 05:44:01 PM 60.7167 -148.5330 262° West 480 552 36,000  Level Anchorage Center
Tue 05:45:01 PM 60.7000 -148.7830 270° West 480 552 36,000  Level Anchorage Center
Tue 05:46:02 PM 60.7000 -149.1000 263° West 490 564 36,000  Level Anchorage Center
Tue 05:47:02 PM 60.6833 -149.3830 263° West 480 552 36,000  Level Anchorage Center
Tue 05:48:03 PM 60.6667 -149.6500 270° West 480 552 36,000  Level Anchorage Center
Tue 05:49:03 PM 60.6667 -149.9330 242° Southwest 490 564 36,000  Level Anchorage Center
Tue 05:50:03 PM 60.6000 -150.1830 240° Southwest 490 564 36,000  Level Anchorage Center
Tue 05:51:04 PM 60.5333 -150.4170 240° Southwest 490 564 36,000  Level Anchorage Center
Tue 05:52:04 PM 60.4667 -150.6500 242° Southwest 480 552 36,000  Level Anchorage Center
Tue 05:53:04 PM 60.4000 -150.9000 234° Southwest 480 552 36,000  Level Anchorage Center
Tue 05:54:04 PM 60.3167 -151.1330 240° Southwest 490 564 36,000  Level Anchorage Center
Tue 05:55:05 PM 60.2500 -151.3670 240° Southwest 480 552 36,000  Level Anchorage Center
Tue 05:56:06 PM 60.1833 -151.6000 240° Southwest 480 552 36,000  Level Anchorage Center
Tue 05:57:05 PM 60.1167 -151.8330 235° Southwest 490 564 36,000  Level Anchorage Center
Tue 05:58:06 PM 60.0333 -152.0670 240° Southwest 480 552 36,000  Level Anchorage Center
Tue 05:59:07 PM 59.9667 -152.3000 240° Southwest 490 564 36,000  Level Anchorage Center
Tue 06:00:07 PM 59.9000 -152.5330 235° Southwest 480 552 36,000  Level Anchorage Center
Tue 06:01:07 PM 59.8167 -152.7670 239° Southwest 490 564 36,000  Level Anchorage Center
Tue 06:02:07 PM 59.7500 -152.9830 241° Southwest 490 564 36,000  Level Anchorage Center
Tue 06:03:07 PM 59.6833 -153.2170 235° Southwest 490 564 36,000  Level Anchorage Center
Tue 06:04:08 PM 59.6000 -153.4500 239° Southwest 490 564 36,000  Level Anchorage Center
Tue 06:05:08 PM 59.5333 -153.6670 235° Southwest 490 564 36,000  Level Anchorage Center
Tue 06:06:09 PM 59.4500 -153.9000 241° Southwest 490 564 36,000  Level Anchorage Center
Tue 06:07:09 PM 59.3833 -154.1330 233° Southwest 480 552 36,000  Level Anchorage Center
Tue 06:08:09 PM 59.3000 -154.3500 241° Southwest 480 552 36,000  Level Anchorage Center
Tue 06:09:10 PM 59.2333 -154.5830 233° Southwest 490 564 36,000  Level Anchorage Center
Tue 06:10:10 PM 59.1500 -154.8000 233° Southwest 490 564 36,000  Level Anchorage Center
Tue 06:11:11 PM 59.0667 -155.0170 239° Southwest 490 564 36,000  Level Anchorage Center
Tue 06:12:11 PM 59.0000 -155.2330 233° Southwest 490 564 36,000  Level Anchorage Center
Tue 06:13:11 PM 58.9167 -155.4500 233° Southwest 480 552 36,000  Level Anchorage Center
Tue 06:14:12 PM 58.8333 -155.6670 239° Southwest 480 552 36,000  Level Anchorage Center
Tue 06:15:12 PM 58.7667 -155.8830 234° Southwest 490 564 36,000  Level Anchorage Center
Tue 06:16:12 PM 58.6833 -156.1000 234° Southwest 490 564 36,000  Level Anchorage Center
Tue 06:17:13 PM 58.6000 -156.3170 237° Southwest 480 552 36,000  Level Anchorage Center
Tue 06:17:20 PM 58.5833 -156.3670 235° Southwest 500 575 36,000  Level Anchorage Center
Tue 06:18:13 PM 58.5167 -156.5500 360° North 490 564 36,000  Level Anchorage Center
Tue 06:18:20 PM 58.5167 -156.5500 234° Southwest 490 564 36,000  Level Anchorage Center
Tue 06:19:13 PM 58.4333 -156.7670 90° East 490 564 36,000  Level Anchorage Center
Tue 06:19:20 PM 58.4333 -156.7500 240° Southwest 490 564 36,000  Level Anchorage Center
Tue 06:20:14 PM 58.3667 -156.9670 360° North 480 552 36,000  Level Anchorage Center
Tue 06:20:21 PM 58.3667 -156.9670 234° Southwest 480 552 36,000  Level Anchorage Center
Tue 06:21:14 PM 58.2833 -157.1830 360° North 480 552 36,000  Level Anchorage Center
Tue 06:21:21 PM 58.2833 -157.1830 232° Southwest 480 552 36,000  Level Anchorage Center
Tue 06:22:14 PM 58.2000 -157.3830 360° North 480 552 36,000  Level Anchorage Center
Tue 06:22:21 PM 58.2000 -157.3830 232° Southwest 480 552 36,000  Level Anchorage Center
Tue 06:23:15 PM 58.1167 -157.5830 360° North 480 552 36,000  Level Anchorage Center
Tue 06:23:21 PM 58.1167 -157.5830 240° Southwest 480 552 36,000  Level Anchorage Center
Tue 06:24:15 PM 58.0500 -157.8000 90° East 470 541 36,000  Level Anchorage Center
Tue 06:24:22 PM 58.0500 -157.7830 234° Southwest 470 541 36,000  Level Anchorage Center
Tue 06:25:15 PM 57.9667 -158.0000 360° North 470 541 36,000  Level Anchorage Center
Tue 06:25:22 PM 57.9667 -158.0000 232° Southwest 480 552 36,000  Level Anchorage Center
Tue 06:26:16 PM 57.8833 -158.2000 360° North 470 541 36,000  Level Anchorage Center
Tue 06:26:22 PM 57.8833 -158.2000 232° Southwest 470 541 36,000  Level Anchorage Center
Tue 06:27:16 PM 57.8000 -158.4000 360° North 470 541 36,000  Level Anchorage Center
Tue 06:27:22 PM 57.8000 -158.4000 232° Southwest 470 541 36,000  Level Anchorage Center
Tue 06:28:17 PM 57.7167 -158.6000 360° North 470 541 36,000  Level Anchorage Center
Tue 06:28:23 PM 57.7167 -158.6000 238° Southwest 470 541 36,000  Level Anchorage Center
Tue 06:29:17 PM 57.6500 -158.8000 90° East 470 541 36,000  Level Anchorage Center
Tue 06:29:23 PM 57.6500 -158.7830 232° Southwest 470 541 36,000  Level Anchorage Center
Tue 06:30:17 PM 57.5667 -158.9830 360° North 480 552 36,000  Level Anchorage Center
Tue 06:30:23 PM 57.5667 -158.9830 232° Southwest 480 552 36,000  Level Anchorage Center
Tue 06:31:18 PM 57.4833 -159.1830 360° North 470 541 36,000  Level Anchorage Center
Tue 06:31:24 PM 57.4833 -159.1830 232° Southwest 470 541 36,000  Level Anchorage Center
Tue 06:32:18 PM 57.4000 -159.3830 360° North 470 541 36,000  Level Anchorage Center
Tue 06:32:24 PM 57.4000 -159.3830 230° Southwest 470 541 36,000  Level Anchorage Center
Tue 06:33:18 PM 57.3167 -159.5670 227° Southwest 470 541 36,000  Level Anchorage Center
Tue 06:33:24 PM 57.3000 -159.6000 231° Southwest 460 529 36,000  Level Anchorage Center
Tue 06:34:19 PM 57.2333 -159.7500 239° Southwest 460 529 36,000  Level Anchorage Center
Tue 06:34:24 PM 57.2167 -159.8000 231° Southwest 470 541 36,000  Level Anchorage Center
Tue 06:35:19 PM 57.1500 -159.9500 227° Southwest 470 541 36,000  Level Anchorage Center
Tue 06:35:24 PM 57.1333 -159.9830 234° Southwest 480 552 36,000  Level Anchorage Center
Tue 06:36:19 PM 57.0667 -160.1500 227° Southwest 480 552 36,000  Level Anchorage Center
Tue 06:36:25 PM 57.0500 -160.1830 234° Southwest 480 552 36,000  Level Anchorage Center
Tue 06:37:20 PM 56.9833 -160.3500 227° Southwest 480 552 36,000  Level Anchorage Center
Tue 06:37:25 PM 56.9667 -160.3830 231° Southwest 480 552 36,000  Level Anchorage Center
Tue 06:38:20 PM 56.9000 -160.5330 228° Southwest 480 552 36,000  Level Anchorage Center
Tue 06:38:25 PM 56.8833 -160.5670 231° Southwest 480 552 36,000  Level Anchorage Center
Tue 06:39:20 PM 56.8167 -160.7170 239° Southwest 470 541 36,000  Level Anchorage Center
Tue 06:39:25 PM 56.8000 -160.7670 234° Southwest 470 541 36,000  Level Anchorage Center
Tue 06:40:20 PM 56.7333 -160.9330 360° North 460 529 36,000  Level Anchorage Center
Tue 06:40:26 PM 56.7333 -160.9330 231° Southwest 460 529 36,000  Level Anchorage Center
Tue 06:41:21 PM 56.6500 -161.1170 360° North 470 541 36,000  Level Anchorage Center
Tue 06:41:26 PM 56.6500 -161.1170 230° Southwest 470 541 36,000  Level Anchorage Center
Tue 06:42:21 PM 56.5667 -161.3000 360° North 460 529 36,000  Level Anchorage Center
Tue 06:42:26 PM 56.5667 -161.3000 231° Southwest 460 529 36,000  Level Anchorage Center
Tue 06:43:22 PM 56.4833 -161.4830 360° North 470 541 36,000  Level Anchorage Center
Tue 06:43:26 PM 56.4833 -161.4830 231° Southwest 470 541 36,000  Level Anchorage Center
Tue 06:44:22 PM 56.4000 -161.6670 360° North 470 541 36,000  Level Anchorage Center
Tue 06:44:27 PM 56.4000 -161.6670 231° Southwest 470 541 36,000  Level Anchorage Center
Tue 06:45:22 PM 56.3167 -161.8500 360° North 470 541 36,000  Level Anchorage Center
Tue 06:45:27 PM 56.3167 -161.8500 231° Southwest 470 541 36,000  Level Anchorage Center
Tue 06:46:23 PM 56.2333 -162.0330 180° South 470 541 36,000  Level Anchorage Center
Tue 06:46:27 PM 56.2167 -162.0330 231° Southwest 470 541 36,000  Level Anchorage Center
Tue 06:47:23 PM 56.1333 -162.2170 360° North 470 541 36,000  Level Anchorage Center
Tue 06:47:27 PM 56.1333 -162.2170 228° Southwest 470 541 36,000  Level Anchorage Center
Tue 06:48:23 PM 56.0500 -162.3830 360° North 470 541 36,000  Level Anchorage Center
Tue 06:48:28 PM 56.0500 -162.3830 231° Southwest 470 541 36,000  Level Anchorage Center
Tue 06:49:24 PM 55.9667 -162.5670 360° North 460 529 36,000  Level Anchorage Center
Tue 06:49:28 PM 55.9667 -162.5670 231° Southwest 460 529 36,000  Level Anchorage Center
Tue 06:50:24 PM 55.8833 -162.7500 360° North 470 541 36,000  Level Anchorage Center
Tue 06:50:28 PM 55.8833 -162.7500 228° Southwest 470 541 36,000  Level Anchorage Center
Tue 06:51:25 PM 55.8000 -162.9170 360° North 470 541 36,000  Level Anchorage Center
Tue 06:51:28 PM 55.8000 -162.9170 231° Southwest 470 541 36,000  Level Anchorage Center
Tue 06:52:25 PM 55.7167 -163.1000 228° Southwest 470 541 36,000  Level Anchorage Center
Tue 06:52:28 PM 55.7000 -163.1330 232° Southwest 470 541 36,000  Level Anchorage Center
Tue 06:53:25 PM 55.6333 -163.2830 196° South 470 541 36,000  Level Anchorage Center
Tue 06:53:29 PM 55.6000 -163.3000 196° South 470 541 36,000  Level Anchorage Center
Tue 06:54:26 PM 55.5000 -163.3500 180° South 470 541 36,000  Level Anchorage Center
Tue 06:54:29 PM 55.4833 -163.3500 141° Southeast 470 541 36,000  Level Anchorage Center
Tue 06:55:26 PM 55.4000 -163.2330 132° Southeast 440 506 36,000  Level Anchorage Center
Tue 06:55:29 PM 55.3833 -163.2000 98° East 440 506 36,000  Level Anchorage Center
Tue 06:56:27 PM 55.3667 -163.0000 360° North 440 506 36,000  Level Anchorage Center
Tue 06:56:29 PM 55.3667 -163.0000 82° East 430 495 36,000  Level Anchorage Center
Tue 06:57:27 PM 55.3833 -162.7830 360° North 460 529 36,000  Level Anchorage Center
Tue 06:57:30 PM 55.3833 -162.7830 106° East 460 529 36,000  Level Anchorage Center
Tue 06:58:27 PM 55.3500 -162.5830 360° North 460 529 36,000  Level Anchorage Center
Tue 06:58:30 PM 55.3500 -162.5830 105° East 460 529 36,000  Level Anchorage Center
Tue 06:59:28 PM 55.3167 -162.3670 360° North 450 518 36,000  Level Anchorage Center
Tue 06:59:30 PM 55.3167 -162.3670 104° East 450 518 36,000  Level Anchorage Center
Tue 07:00:28 PM 55.2833 -162.1330 360° North 460 529 36,000  Level Anchorage Center
Tue 07:00:30 PM 55.2833 -162.1330 105° East 460 529 36,000  Level Anchorage Center
Tue 07:01:29 PM 55.2500 -161.9170 360° North 460 529 36,000  Level Anchorage Center
Tue 07:01:31 PM 55.2500 -161.9170 97° East 460 529 36,000  Level Anchorage Center
Tue 07:02:29 PM 55.2333 -161.6830 180° South 470 541 36,000  Level Anchorage Center
Tue 07:02:31 PM 55.2167 -161.6830 98° East 470 541 36,000  Level Anchorage Center
Tue 07:03:29 PM 55.2000 -161.4670 360° North 450 518 36,000  Level Anchorage Center
Tue 07:03:31 PM 55.2000 -161.4670 105° East 460 529 36,000  Level Anchorage Center
Tue 07:04:29 PM 55.1667 -161.2500 360° North 460 529 36,000  Level Anchorage Center
Tue 07:04:31 PM 55.1667 -161.2500 105° East 460 529 36,000  Level Anchorage Center
Tue 07:05:30 PM 55.1333 -161.0330 360° North 460 529 36,000  Level Anchorage Center
Tue 07:05:31 PM 55.1333 -161.0330 105° East 460 529 36,000  Level Anchorage Center
Tue 07:06:30 PM 55.1000 -160.8170 360° North 460 529 36,000  Level Anchorage Center
Tue 07:06:32 PM 55.1000 -160.8170 105° East 460 529 36,000  Level Anchorage Center
Tue 07:07:30 PM 55.0667 -160.6000 360° North 460 529 36,000  Level Anchorage Center
Tue 07:07:32 PM 55.0667 -160.6000 104° East 460 529 36,000  Level Anchorage Center
Tue 07:08:31 PM 55.0333 -160.3670 360° North 460 529 36,000  Level Anchorage Center
Tue 07:08:32 PM 55.0333 -160.3670 98° East 460 529 36,000  Level Anchorage Center
Tue 07:09:31 PM 55.0167 -160.1500 360° North 460 529 36,000  Level Anchorage Center
Tue 07:09:33 PM 55.0167 -160.1500 105° East 460 529 36,000  Level Anchorage Center
Tue 07:10:32 PM 54.9833 -159.9330 360° North 460 529 36,000  Level Anchorage Center
Tue 07:10:33 PM 54.9833 -159.9330 105° East 460 529 36,000  Level Anchorage Center
Tue 07:11:32 PM 54.9500 -159.7170 180° South 460 529 36,000  Level Anchorage Center
Tue 07:11:33 PM 54.9333 -159.7170 97° East 460 529 36,000  Level Anchorage Center
Tue 07:12:32 PM 54.9167 -159.5000 360° North 460 529 36,000  Level Anchorage Center
Tue 07:12:33 PM 54.9167 -159.5000 105° East 460 529 36,000  Level Anchorage Center
Tue 07:30:23 PM 54.2667 -155.7000 108° East 475 547 36,000  Level Oakland Oceanic
Tue 07:44:19 PM 53.6500 -152.7330 106° East 496 571 36,000  Level Oakland Oceanic
Tue 08:10:15 PM 52.5000 -146.9670 102° East 529 609 36,000  Level Oakland Oceanic
Tue 08:10:36 PM 52.4833 -146.8330 107° East 529 609 36,000  Level Oakland Oceanic
Tue 08:23:59 PM 51.8833 -143.7830 109° East 545 627 36,000  Level Oakland Oceanic
Tue 08:37:51 PM 51.1500 -140.5670 113° Southeast 575 662 36,000  Level Oakland Oceanic
Tue 08:40:31 PM 51.0000 -140.0000 95° East 573 659 36,000  Level Oakland Oceanic
Tue 08:52:55 PM 50.8000 -137.0830 98° East 569 655 36,000  Level Oakland Oceanic
Tue 09:05:48 PM 50.4500 -133.6500 102° East 520 598 36,000  Level Vancouver Center
Tue 09:06:48 PM 50.4167 -133.4000 97° East 560 644 36,000  Level Vancouver Center
Tue 09:07:48 PM 50.4000 -133.1830 103° East 550 633 36,000  Level Vancouver Center
Tue 09:08:48 PM 50.3667 -132.9500 102° East 560 644 36,000  Level Vancouver Center
Tue 09:09:48 PM 50.3333 -132.7000 103° East 560 644 36,000  Level Vancouver Center
Tue 09:10:48 PM 50.3000 -132.4670 96° East 550 633 36,000 400 Level Vancouver Center
Tue 09:11:48 PM 50.2833 -132.2170 96° East 560 644 36,800 500 Climbing Vancouver Center
Tue 09:12:48 PM 50.2667 -131.9830 96° East 560 644 37,000 100 Climbing Vancouver Center
Tue 09:13:48 PM 50.2500 -131.7500 96° East 550 633 37,000  Level Vancouver Center
Tue 09:14:48 PM 50.2333 -131.5000 96° East 550 633 37,000  Level Vancouver Center
Tue 09:15:48 PM 50.2167 -131.2670 102° East 550 633 37,000  Level Vancouver Center
Tue 09:16:48 PM 50.1833 -131.0330 96° East 550 633 37,000  Level Vancouver Center
Tue 09:17:48 PM 50.1667 -130.7830 97° East 550 633 37,000  Level Vancouver Center
Tue 09:18:47 PM 50.1500 -130.5830 102° East 540 621 37,000  Level Vancouver Center
Tue 09:19:47 PM 50.1167 -130.3330 96° East 550 633 37,000  Level Vancouver Center
Tue 09:20:48 PM 50.1000 -130.1000 96° East 550 633 37,000  Level Vancouver Center
Tue 09:21:48 PM 50.0833 -129.8670 96° East 550 633 37,000  Level Vancouver Center
Tue 09:22:47 PM 50.0667 -129.6330 102° East 540 621 37,000  Level Vancouver Center
Tue 09:23:47 PM 50.0333 -129.3830 97° East 540 621 37,000  Level Vancouver Center
Tue 09:24:47 PM 50.0167 -129.1830 96° East 540 621 37,000  Level Vancouver Center
Tue 09:25:47 PM 50.0000 -128.9500 102° East 540 621 37,000  Level Vancouver Center
Tue 09:26:47 PM 49.9667 -128.7000 102° East 540 621 37,000  Level Vancouver Center
Tue 09:27:47 PM 49.9333 -128.4670 104° East 530 610 37,000  Level Vancouver Center
Tue 09:28:47 PM 49.9000 -128.2670 96° East 530 610 37,000  Level Vancouver Center
Tue 09:29:47 PM 49.8833 -128.0170 102° East 530 610 37,000  Level Vancouver Center
Tue 09:30:47 PM 49.8500 -127.7830 96° East 530 610 37,000  Level Vancouver Center
Tue 09:31:47 PM 49.8333 -127.5500 104° East 530 610 37,000  Level Vancouver Center
Tue 09:32:47 PM 49.8000 -127.3500 97° East 530 610 37,000  Level Vancouver Center
Tue 09:33:47 PM 49.7833 -127.1330 102° East 530 610 37,000  Level Vancouver Center
Tue 09:34:47 PM 49.7500 -126.9000 103° East 530 610 37,000  Level Vancouver Center
Tue 09:35:47 PM 49.7167 -126.6830 96° East 530 610 37,000  Level Vancouver Center
Tue 09:36:47 PM 49.7000 -126.4500 102° East 530 610 37,000  Level Vancouver Center
Tue 09:37:47 PM 49.6667 -126.2170 104° East 530 610 37,000  Level Vancouver Center
Tue 09:38:47 PM 49.6333 -126.0170 102° East 530 610 37,000  Level Vancouver Center
Tue 09:39:47 PM 49.6000 -125.7830 97° East 520 598 37,000  Level Vancouver Center
Tue 09:40:47 PM 49.5833 -125.5830 102° East 520 598 37,000  Level Vancouver Center
Tue 09:41:47 PM 49.5500 -125.3500 103° East 520 598 37,000  Level Vancouver Center
Tue 09:42:47 PM 49.5167 -125.1330 104° East 520 598 37,000  Level Vancouver Center
Tue 09:43:47 PM 49.4833 -124.9330 102° East 510 587 37,000  Level Vancouver Center
Tue 09:44:47 PM 49.4500 -124.7000 104° East 510 587 37,000  Level Vancouver Center
Tue 09:45:47 PM 49.4167 -124.5000 102° East 510 587 37,000  Level Vancouver Center
Tue 09:46:47 PM 49.3833 -124.2670 103° East 510 587 37,000 397 Level Vancouver Center
Tue 09:47:48 PM 49.3500 -124.0500 99° East 510 587 37,800 750 Climbing Vancouver Center
Tue 09:48:47 PM 49.3333 -123.8830 102° East 510 587 38,500 605 Climbing Vancouver Center
Tue 09:49:47 PM 49.3000 -123.6500 103° East 510 587 39,000 250 Climbing Vancouver Center
Tue 09:50:47 PM 49.2667 -123.4330 103° East 510 587 39,000  Level Vancouver Center
Tue 09:51:48 PM 49.2333 -123.2170 103° East 520 598 39,000  Level Vancouver Center
Tue 09:52:47 PM 49.2000 -123.0000 104° East 510 587 39,000  Level Vancouver Center
Tue 09:53:47 PM 49.1667 -122.8000 104° East 500 575 39,000  Level Vancouver Center
Tue 09:54:47 PM 49.1333 -122.6000 104° East 500 575 39,000  Level Vancouver Center
Tue 09:55:47 PM 49.1000 -122.4000 102° East 500 575 39,000  Level Vancouver Center
Tue 09:56:47 PM 49.0667 -122.1670 111° Southeast 510 587 39,000  Level Vancouver Center
Tue 09:57:47 PM 49.0167 -121.9670 83° East 510 587 39,000  Level Vancouver Center
Tue 09:58:26 PM 49.0250 -121.8580 125° Southeast 486 559 39,000  Level Seattle Center
Tue 09:58:47 PM 48.9833 -121.7670 87° East 510 587 39,000  Level Vancouver Center
Tue 09:59:26 PM 48.9869 -121.6390 128° Southeast 505 581 39,000  Level Seattle Center
Tue 09:59:47 PM 48.9500 -121.5670 88° East 510 587 39,000  Level Vancouver Center
Tue 10:00:26 PM 48.9525 -121.4360 128° Southeast 505 581 39,000  Level Seattle Center
Tue 10:00:47 PM 48.9167 -121.3670 92° East 500 575 39,000  Level Vancouver Center
Tue 10:01:26 PM 48.9136 -121.2290 127° Southeast 505 581 39,000  Level Seattle Center
Tue 10:01:47 PM 48.8667 -121.1330 80° East 500 575 39,000  Level Vancouver Center
Tue 10:02:26 PM 48.8786 -121.0270 115° Southeast 500 575 39,000  Level Seattle Center
Tue 10:02:47 PM 48.8500 -120.9330 103° East 500 575 39,000  Level Vancouver Center
Tue 10:03:26 PM 48.8367 -120.8460 105° East 494 568 39,000  Level Seattle Center
Tue 10:03:47 PM 48.8167 -120.7330 105° East 510 587 39,000  Level Vancouver Center
Tue 10:04:26 PM 48.8008 -120.6410 116° Southeast 499 574 39,000  Level Seattle Center
Tue 10:04:47 PM 48.7667 -120.5330 88° East 500 575 39,000  Level Vancouver Center
Tue 10:05:26 PM 48.7689 -120.4330 118° Southeast 499 574 39,000  Level Seattle Center
Tue 10:05:47 PM 48.7333 -120.3330 93° East 500 575 39,000  Level Vancouver Center
Tue 10:06:26 PM 48.7303 -120.2320 115° Southeast 499 574 39,000  Level Seattle Center
Tue 10:06:47 PM 48.7000 -120.1330 92° East 500 575 39,000  Level Vancouver Center
Tue 10:07:26 PM 48.6978 -120.0240 120° Southeast 494 568 39,000  Level Seattle Center
Tue 10:07:47 PM 48.6500 -119.9000 81° East 510 587 39,000  Level Vancouver Center
Tue 10:08:26 PM 48.6583 -119.8230 107° East 494 568 39,000  Level Seattle Center
Tue 10:08:47 PM 48.6333 -119.7000 102° East 500 575 39,000  Level Vancouver Center
Tue 10:09:26 PM 48.6231 -119.6260 119° Southeast 494 568 39,000  Level Seattle Center
Tue 10:09:47 PM 48.5833 -119.5170 84° East 490 564 39,000  Level Vancouver Center
Tue 10:10:26 PM 48.5894 -119.4220 108° East 494 568 39,000  Level Seattle Center
Tue 10:10:47 PM 48.5667 -119.3170 101° East 490 564 39,000  Level Vancouver Center
Tue 10:11:26 PM 48.5553 -119.2250 118° Southeast 487 560 39,000  Level Seattle Center
Tue 10:11:47 PM 48.5167 -119.1170 96° East 490 564 39,000  Level Vancouver Center
Tue 10:12:26 PM 48.5106 -119.0350 109° East 487 560 39,000  Level Seattle Center
Tue 10:12:47 PM 48.4833 -118.9170 108° East 490 564 39,000  Level Vancouver Center
Tue 10:13:26 PM 48.4675 -118.8420 112° Southeast 482 555 39,000  Level Seattle Center
Tue 10:13:47 PM 48.4333 -118.7170 96° East 490 564 39,000  Level Vancouver Center
Tue 10:14:26 PM 48.4286 -118.6460 114° Southeast 482 555 39,000  Level Seattle Center
Tue 10:14:47 PM 48.4000 -118.5500 103° East 490 564 39,000  Level Vancouver Center
Tue 10:15:26 PM 48.3850 -118.4560 111° Southeast 482 555 39,000  Level Seattle Center
Tue 10:15:47 PM 48.3500 -118.3170 100° East 490 564 39,000  Level Vancouver Center
Tue 10:16:26 PM 48.3431 -118.2610 110° East 482 555 39,000  Level Seattle Center
Tue 10:16:47 PM 48.3167 -118.1500 106° East 490 564 39,000  Level Vancouver Center
Tue 10:17:26 PM 48.3008 -118.0660 111° Southeast 482 555 39,000  Level Seattle Center
Tue 10:17:47 PM 48.2667 -117.9330 101° East 490 564 39,000  Level Vancouver Center
Tue 10:18:26 PM 48.2583 -117.8710 121° Southeast 482 555 39,000  Level Seattle Center
Tue 10:18:47 PM 48.2167 -117.7670 89° East 490 564 39,000  Level Vancouver Center
Tue 10:19:26 PM 48.2178 -117.6790 115° Southeast 482 555 39,000  Level Seattle Center
Tue 10:19:47 PM 48.1833 -117.5670 102° East 490 564 39,000  Level Vancouver Center
Tue 10:20:26 PM 48.1725 -117.4890 116° Southeast 482 555 39,000  Level Seattle Center
Tue 10:20:47 PM 48.1333 -117.3670 95° East 490 564 39,000  Level Vancouver Center
Tue 10:21:26 PM 48.1292 -117.2950 121° Southeast 482 555 39,000  Level Seattle Center
Tue 10:21:47 PM 48.0833 -117.1830 88° East 490 564 39,000  Level Vancouver Center
Tue 10:22:26 PM 48.0853 -117.0980 115° Southeast 482 555 39,000  Level Seattle Center
Tue 10:22:47 PM 48.0500 -116.9830 98° East 490 564 39,000  Level Vancouver Center
Tue 10:23:26 PM 48.0433 -116.9080 117° Southeast 482 555 39,000  Level Seattle Center
Tue 10:23:47 PM 48.0000 -116.7830 89° East 490 564 39,000  Level Vancouver Center
Tue 10:24:26 PM 48.0011 -116.7150 124° Southeast 482 555 39,000  Level Seattle Center
Tue 10:24:47 PM 47.9500 -116.6000 88° East 490 564 39,000  Level Vancouver Center
Tue 10:25:26 PM 47.9519 -116.5070 105° East 482 555 39,000  Level Seattle Center
Tue 10:25:47 PM 47.9333 -116.4000 115° Southeast 490 564 39,000  Level Vancouver Center
Tue 10:26:26 PM 47.9069 -116.3150 107° East 482 555 39,000  Level Seattle Center
Tue 10:26:47 PM 47.8833 -116.2000 112° Southeast 490 564 39,000  Level Vancouver Center
Tue 10:27:26 PM 47.8636 -116.1260 116° Southeast 482 555 39,000  Level Seattle Center
Tue 10:27:47 PM 47.8333 -116.0330 103° East 490 564 39,000  Level Vancouver Center
Tue 10:28:26 PM 47.8181 -115.9340 122° Southeast 482 555 39,000  Level Seattle Center
Tue 10:28:47 PM 47.7833 -115.8500 99° East 490 564 39,000  Level Vancouver Center
Tue 10:29:26 PM 47.7722 -115.7460 104° East 482 555 39,000  Level Seattle Center
Tue 10:29:57 PM 47.7553 -115.6460 111° Southeast 477 549 39,000  Level Salt Center
Tue 10:30:57 PM 47.7067 -115.4570 109° East 466 536 39,000  Level Salt Center
Tue 10:31:57 PM 47.6622 -115.2650 110° East 476 548 39,000  Level Salt Center
Tue 10:32:58 PM 47.6153 -115.0770 111° Southeast 482 555 39,000  Level Salt Center
Tue 10:33:57 PM 47.5678 -114.8920 109° East 482 555 39,000  Level Salt Center
Tue 10:34:57 PM 47.5225 -114.6950 111° Southeast 487 560 39,000  Level Salt Center
Tue 10:35:57 PM 47.4725 -114.5070 110° East 487 560 39,000  Level Salt Center
Tue 10:36:57 PM 47.4244 -114.3140 110° East 493 567 39,000  Level Salt Center
Tue 10:37:57 PM 47.3781 -114.1240 110° East 498 573 39,000  Level Salt Center
Tue 10:38:57 PM 47.3294 -113.9290 111° Southeast 498 573 39,000  Level Salt Center
Tue 10:39:57 PM 47.2803 -113.7400 110° East 498 573 39,000  Level Salt Center
Tue 10:40:57 PM 47.2331 -113.5540 111° Southeast 498 573 39,000  Level Salt Center
Tue 10:41:57 PM 47.1853 -113.3690 111° Southeast 493 567 39,000  Level Salt Center
Tue 10:42:57 PM 47.1375 -113.1830 111° Southeast 493 567 39,000  Level Salt Center
Tue 10:43:57 PM 47.0872 -112.9930 114° Southeast 493 567 39,000  Level Salt Center
Tue 10:44:57 PM 47.0322 -112.8110 112° Southeast 493 567 39,000  Level Salt Center
Tue 10:45:57 PM 46.9814 -112.6240 111° Southeast 488 562 39,000  Level Salt Center
Tue 10:46:57 PM 46.9322 -112.4370 112° Southeast 488 562 39,000  Level Salt Center
Tue 10:47:57 PM 46.8808 -112.2500 112° Southeast 488 562 39,000  Level Salt Center
Tue 10:48:57 PM 46.8292 -112.0610 112° Southeast 493 567 39,000  Level Salt Center
Tue 10:49:57 PM 46.7792 -111.8780 113° Southeast 499 574 39,000  Level Salt Center
Tue 10:50:57 PM 46.7267 -111.6960 112° Southeast 494 568 39,000  Level Salt Center
Tue 10:51:57 PM 46.6742 -111.5070 112° Southeast 494 568 39,000  Level Salt Center
Tue 10:52:57 PM 46.6233 -111.3230 113° Southeast 499 574 39,000  Level Salt Center
Tue 10:53:57 PM 46.5700 -111.1410 113° Southeast 499 574 39,000  Level Salt Center
Tue 10:54:57 PM 46.5167 -110.9570 113° Southeast 499 574 39,000  Level Salt Center
Tue 10:55:57 PM 46.4647 -110.7760 110° East 499 574 39,000  Level Salt Center
Tue 10:56:57 PM 46.4169 -110.5900 113° Southeast 499 574 39,000  Level Salt Center
Tue 10:57:57 PM 46.3689 -110.4280 113° Southeast 489 563 39,000  Level Salt Center
Tue 10:58:57 PM 46.3100 -110.2300 113° Southeast 489 563 39,000  Level Salt Center
Tue 10:59:57 PM 46.2572 -110.0510 114° Southeast 489 563 39,000  Level Salt Center
Tue 11:00:58 PM 46.2019 -109.8740 115° Southeast 489 563 39,000  Level Salt Center
Tue 11:01:57 PM 46.1508 -109.7140 113° Southeast 483 556 39,000  Level Salt Center
Tue 11:02:57 PM 46.0908 -109.5140 114° Southeast 483 556 39,000  Level Salt Center
Tue 11:03:57 PM 46.0347 -109.3330 114° Southeast 483 556 39,000  Level Salt Center
Tue 11:04:57 PM 45.9786 -109.1560 114° Southeast 483 556 39,000  Level Salt Center
Tue 11:05:57 PM 45.9306 -108.9990 114° Southeast 483 556 39,000  Level Salt Center
Tue 11:06:57 PM 45.8694 -108.7980 115° Southeast 483 556 39,000  Level Salt Center
Tue 11:07:57 PM 45.8122 -108.6240 113° Southeast 483 556 39,000  Level Salt Center
Tue 11:08:57 PM 45.7592 -108.4450 113° Southeast 488 562 39,000  Level Salt Center
Tue 11:09:57 PM 45.7122 -108.2830 112° Southeast 494 568 39,000  Level Salt Center
Tue 11:10:57 PM 45.6606 -108.1010 114° Southeast 488 562 39,000  Level Salt Center
Tue 11:11:57 PM 45.5997 -107.9060 113° Southeast 489 563 39,000  Level Salt Center
Tue 11:12:57 PM 45.5453 -107.7220 115° Southeast 494 568 39,000  Level Salt Center
Tue 11:13:57 PM 45.4933 -107.5610 113° Southeast 494 568 39,000  Level Salt Center
Tue 11:14:57 PM 45.4383 -107.3810 113° Southeast 494 568 39,000  Level Salt Center

Login

Don't have an account? Register now (free) for customized features, flight alerts, and more!